Time;durP1;ratioP1;P1;durP2;ratioP2;P2;SDS_P1;SDS_P2;PMS_P1;PMS_P2;Temp;Humidity;BMP_temperature;BMP_pressure;BME280_temperature;BME280_humidity;BME280_pressure;Samples;Min_cycle;Max_cycle;Signal;HPM_P1;HPM_P2
2023/03/07 00:01:49;;;;;;;75.30;42.80;;;;;;;1.16;78.01;99026.20;130292;1255;114715;-64
2023/03/07 00:04:52;;;;;;;74.30;42.70;;;;;;;1.15;78.19;99028.20;130052;1259;114812;-65
2023/03/07 00:07:54;;;;;;;79.00;45.60;;;;;;;1.13;78.22;99024.03;130330;1254;114753;-65
2023/03/07 00:11:00;;;;;;;77.50;43.60;;;;;;;1.12;78.52;99025.83;130279;1256;115189;-64
2023/03/07 00:14:07;;;;;;;79.90;45.70;;;;;;;1.10;78.47;99026.39;130251;1257;114750;-65
2023/03/07 00:17:09;;;;;;;77.00;43.80;;;;;;;1.09;78.40;99027.14;130249;1267;126269;-66
2023/03/07 00:20:13;;;;;;;76.80;41.70;;;;;;;1.07;78.38;99026.83;130233;1254;115103;-65
2023/03/07 00:23:15;;;;;;;73.20;41.00;;;;;;;1.07;78.59;99028.43;129990;1258;114783;-65
2023/03/07 00:26:22;;;;;;;81.30;43.50;;;;;;;1.06;78.19;99024.94;130242;1257;114815;-65
2023/03/07 00:29:24;;;;;;;74.20;42.20;;;;;;;1.06;78.29;99022.66;130026;1260;114776;-65
2023/03/07 00:32:27;;;;;;;76.30;41.70;;;;;;;1.06;78.54;99019.48;130233;1257;114750;-67
2023/03/07 00:35:29;;;;;;;66.80;40.60;;;;;;;1.05;78.66;99015.99;130277;1257;114750;-66
2023/03/07 00:38:31;;;;;;;72.10;41.30;;;;;;;1.04;78.47;99012.84;130513;1257;115157;-66
2023/03/07 00:41:33;;;;;;;66.20;40.50;;;;;;;1.05;78.71;99009.50;130185;1268;114764;-65
2023/03/07 00:44:35;;;;;;;72.10;40.40;;;;;;;1.05;78.92;99011.41;130347;1276;114795;-67
2023/03/07 00:47:37;;;;;;;72.10;39.60;;;;;;;1.06;78.68;99006.30;130303;1257;114730;-69
2023/03/07 00:50:40;;;;;;;67.70;38.70;;;;;;;1.08;78.66;99002.38;129909;1274;114846;-64
2023/03/07 00:53:42;;;;;;;67.90;37.60;;;;;;;1.09;78.81;99000.23;130230;1257;114795;-65
2023/03/07 00:56:45;;;;;;;55.70;34.30;;;;;;;1.09;78.81;98997.94;130340;1258;114723;-64
2023/03/07 00:59:47;;;;;;;62.90;37.60;;;;;;;1.10;78.81;98993.34;130424;1266;114719;-66
2023/03/07 01:02:50;;;;;;;58.20;35.00;;;;;;;1.11;78.80;98988.58;130048;1257;114769;-64
2023/03/07 01:05:53;;;;;;;65.50;38.20;;;;;;;1.13;78.76;98983.05;129942;1261;116390;-65
2023/03/07 01:09:01;;;;;;;57.20;35.30;;;;;;;1.15;78.91;98982.11;130429;1254;115166;-64
2023/03/07 01:12:06;;;;;;;57.70;34.50;;;;;;;1.15;78.95;98980.36;129973;1270;127723;-65
2023/03/07 01:15:09;;;;;;;60.60;34.90;;;;;;;1.15;78.82;98978.06;129912;1270;114756;-65
2023/03/07 01:18:11;;;;;;;57.90;34.40;;;;;;;1.16;79.13;98970.99;130303;1253;114670;-64
2023/03/07 01:21:20;;;;;;;59.10;36.70;;;;;;;1.16;78.81;98968.73;130259;1259;115289;-65
2023/03/07 01:24:22;;;;;;;62.70;36.20;;;;;;;1.16;78.89;98963.25;129794;1254;207973;-64
2023/03/07 01:27:24;;;;;;;67.50;37.10;;;;;;;1.17;79.26;98963.04;130187;1274;115131;-65
2023/03/07 01:30:27;;;;;;;64.90;38.10;;;;;;;1.19;79.13;98958.77;130282;1257;114848;-64
2023/03/07 01:33:29;;;;;;;71.80;39.30;;;;;;;1.20;79.21;98949.74;130299;1254;116368;-65
2023/03/07 01:36:33;;;;;;;71.00;41.10;;;;;;;1.21;79.12;98942.16;130268;1257;115193;-66
2023/03/07 01:39:35;;;;;;;75.00;42.70;;;;;;;1.23;78.95;98937.38;130308;1253;114722;-66
2023/03/07 01:42:37;;;;;;;85.90;46.20;;;;;;;1.23;79.25;98939.48;130157;1257;114826;-65
2023/03/07 01:45:49;;;;;;;86.10;47.70;;;;;;;1.23;78.91;98936.85;130265;1258;114790;-66
2023/03/07 01:49:01;;;;;;;95.40;49.40;;;;;;;1.23;79.25;98932.28;130192;1257;128831;-66
2023/03/07 01:52:10;;;;;;;98.60;50.30;;;;;;;1.25;78.95;98929.19;130028;1260;114705;-66
2023/03/07 01:55:19;;;;;;;97.90;52.70;;;;;;;1.26;79.45;98922.67;129901;1264;114805;-68
2023/03/07 01:58:21;;;;;;;112.60;58.50;;;;;;;1.26;79.42;98915.98;130157;1270;114797;-66
2023/03/07 02:01:25;;;;;;;114.30;59.10;;;;;;;1.25;79.30;98915.65;130235;1258;114780;-66
2023/03/07 02:04:35;;;;;;;123.20;62.20;;;;;;;1.26;79.54;98915.28;130236;1277;115013;-67
2023/03/07 02:07:44;;;;;;;120.30;59.20;;;;;;;1.28;79.77;98917.13;130011;1261;115206;-65
2023/03/07 02:10:46;;;;;;;115.70;58.60;;;;;;;1.29;79.51;98917.98;129970;1259;114818;-64
2023/03/07 02:13:49;;;;;;;121.90;58.70;;;;;;;1.30;79.77;98916.71;130226;1257;115436;-65
2023/03/07 02:16:51;;;;;;;118.40;60.60;;;;;;;1.31;79.32;98915.45;130209;1257;114782;-65
2023/03/07 02:20:12;;;;;;;116.30;58.40;;;;;;;1.32;79.56;98912.80;130221;1254;114789;-65
2023/03/07 02:23:26;;;;;;;110.00;57.20;;;;;;;1.34;79.47;98916.59;130220;1253;127993;-65
2023/03/07 02:26:31;;;;;;;109.70;55.10;;;;;;;1.35;79.66;98918.81;129999;1254;115214;-68
2023/03/07 02:29:33;;;;;;;;;;;;;;;1.36;79.55;98919.67;130146;1254;114891;-65
2023/03/07 02:32:35;;;;;;;99.60;53.50;;;;;;;1.35;79.73;98914.23;130405;1267;115164;-67
2023/03/07 02:35:38;;;;;;;104.00;54.50;;;;;;;1.36;79.52;98913.86;130259;1261;114747;-67
2023/03/07 02:38:44;;;;;;;110.80;58.00;;;;;;;1.36;79.50;98908.93;130290;1254;114763;-64
2023/03/07 02:41:46;;;;;;;106.50;56.00;;;;;;;1.36;79.76;98906.67;129957;1276;128558;-66
2023/03/07 02:44:58;;;;;;;106.20;56.40;;;;;;;1.33;79.23;98898.64;130300;1254;114838;-68
2023/03/07 02:48:00;;;;;;;106.20;57.00;;;;;;;1.34;79.54;98891.79;130064;1257;114809;-63
2023/03/07 02:51:02;;;;;;;113.60;57.80;;;;;;;1.32;79.80;98888.16;130240;1253;115183;-67
2023/03/07 02:54:05;;;;;;;107.20;56.40;;;;;;;1.29;79.54;98885.26;130264;1277;114763;-67
2023/03/07 02:57:07;;;;;;;102.60;55.40;;;;;;;1.27;79.80;98880.95;130132;1257;114718;-67
2023/03/07 03:00:11;;;;;;;97.20;49.30;;;;;;;1.24;79.23;98879.66;130140;1254;114724;-67
2023/03/07 03:03:13;;;;;;;95.60;50.10;;;;;;;1.18;79.06;98876.50;130224;1257;115383;-65
2023/03/07 03:06:16;;;;;;;90.90;50.00;;;;;;;1.13;79.23;98876.31;130166;1254;115362;-64
2023/03/07 03:09:18;;;;;;;94.60;50.40;;;;;;;1.06;79.35;98872.48;130251;1257;114718;-66
2023/03/07 03:12:20;;;;;;;101.10;50.20;;;;;;;0.99;79.17;98874.66;129999;1257;116457;-66
2023/03/07 03:15:22;;;;;;;125.40;48.80;;;;;;;0.94;79.24;98872.03;130126;1254;114728;-67
2023/03/07 03:18:27;;;;;;;99.90;50.40;;;;;;;0.91;79.30;98870.89;130228;1257;114730;-67
2023/03/07 03:21:30;;;;;;;124.40;52.80;;;;;;;0.89;79.40;98870.27;130155;1277;129825;-64
2023/03/07 03:24:32;;;;;;;126.00;53.50;;;;;;;0.86;79.47;98870.35;130230;1257;114822;-68
2023/03/07 03:27:35;;;;;;;125.30;52.00;;;;;;;0.84;79.71;98869.73;130167;1277;115420;-67
2023/03/07 03:30:39;;;;;;;118.20;53.50;;;;;;;0.81;79.74;98866.83;130254;1254;114707;-67
2023/03/07 03:33:43;;;;;;;170.20;54.90;;;;;;;0.81;79.94;98865.97;130210;1258;114715;-67
2023/03/07 03:36:45;;;;;;;161.20;54.20;;;;;;;0.79;79.87;98857.95;130305;1257;114743;-64
2023/03/07 03:39:47;;;;;;;124.60;53.20;;;;;;;0.76;79.88;98852.92;130252;1257;114789;-64
2023/03/07 03:42:50;;;;;;;125.50;53.80;;;;;;;0.74;80.07;98846.30;130264;1257;115190;-66
2023/03/07 03:45:54;;;;;;;162.60;53.40;;;;;;;0.73;80.12;98843.02;130203;1257;115116;-68
2023/03/07 03:48:57;;;;;;;111.40;54.10;;;;;;;0.71;80.06;98842.89;130350;1276;114774;-65
2023/03/07 03:51:59;;;;;;;108.30;53.40;;;;;;;0.69;80.01;98845.06;130220;1257;114765;-68
2023/03/07 03:55:01;;;;;;;119.50;53.90;;;;;;;0.68;80.00;98845.83;130229;1257;114702;-67
2023/03/07 03:58:03;;;;;;;116.90;51.60;;;;;;;0.66;80.39;98841.85;129901;1262;127893;-68
2023/03/07 04:01:08;;;;;;;98.00;51.10;;;;;;;0.64;80.26;98835.06;130198;1256;114747;-69
2023/03/07 04:04:10;;;;;;;116.80;51.00;;;;;;;0.64;80.24;98833.30;130391;1256;114836;-69
2023/03/07 04:07:12;;;;;;;97.30;49.90;;;;;;;0.61;80.41;98830.92;130235;1276;114740;-68
2023/03/07 04:10:15;;;;;;;98.00;50.00;;;;;;;0.59;80.43;98833.10;130316;1272;115334;-67
2023/03/07 04:13:17;;;;;;;96.50;49.70;;;;;;;0.58;80.53;98829.79;130339;1254;114849;-70
2023/03/07 04:16:21;;;;;;;102.80;47.40;;;;;;;0.55;80.29;98830.94;130280;1254;114828;-68
2023/03/07 04:19:23;;;;;;;85.50;47.80;;;;;;;0.54;80.23;98825.71;130371;1256;114805;-68
2023/03/07 04:22:25;;;;;;;100.30;50.80;;;;;;;0.53;80.68;98828.39;130452;1256;114754;-69
2023/03/07 04:25:28;;;;;;;94.50;50.00;;;;;;;0.54;80.55;98823.97;130398;1257;114751;-65
2023/03/07 04:29:08;;;;;;;100.90;47.40;;;;;;;0.54;80.59;98819.02;130337;1256;114695;-68
2023/03/07 04:32:03;;;;;;;110.40;49.80;;;;;;;0.53;80.58;98822.59;130376;1256;114939;-69
2023/03/07 04:35:05;;;;;;;110.20;52.80;;;;;;;0.51;80.55;98826.50;130322;1256;114743;-68
2023/03/07 04:38:08;;;;;;;101.00;51.30;;;;;;;0.50;80.60;98823.55;130327;1257;114759;-69
2023/03/07 04:41:15;;;;;;;104.70;51.80;;;;;;;0.49;80.79;98822.35;130517;1253;114735;-68
2023/03/07 04:44:19;;;;;;;102.90;49.70;;;;;;;0.49;80.48;98817.43;130478;1257;114782;-66
2023/03/07 04:47:22;;;;;;;99.20;48.80;;;;;;;0.47;80.84;98810.48;130290;1275;115051;-69
2023/03/07 04:50:24;;;;;;;94.90;50.00;;;;;;;0.45;80.91;98804.92;130384;1257;114703;-68
2023/03/07 04:53:26;;;;;;;102.10;49.90;;;;;;;0.43;80.66;98795.30;130247;1276;114725;-66
2023/03/07 04:56:29;;;;;;;98.00;49.90;;;;;;;0.42;80.76;98791.48;130319;1254;114810;-65
2023/03/07 04:59:31;;;;;;;104.30;51.80;;;;;;;0.40;81.04;98789.46;130354;1256;114862;-66
2023/03/07 05:02:37;;;;;;;101.90;51.50;;;;;;;0.39;80.92;98785.11;130337;1253;114734;-64
2023/03/07 05:05:39;;;;;;;102.00;52.90;;;;;;;0.39;81.03;98772.98;129909;1260;114782;-68
2023/03/07 05:08:41;;;;;;;93.50;50.70;;;;;;;0.39;81.09;98770.34;130256;1253;115465;-68
2023/03/07 05:11:46;;;;;;;94.40;50.50;;;;;;;0.40;81.16;98769.09;130330;1254;114740;-65
2023/03/07 05:14:48;;;;;;;;;;;;;;;0.40;81.25;98764.86;130312;1257;114839;-64
2023/03/07 05:17:51;;;;;;;94.30;49.20;;;;;;;0.38;81.19;98759.67;130484;1276;115361;-67
2023/03/07 05:20:53;;;;;;;90.50;48.80;;;;;;;0.38;81.36;98753.71;130321;1253;114789;-68
2023/03/07 05:23:55;;;;;;;95.20;51.20;;;;;;;0.37;81.49;98756.02;130239;1257;115385;-65
2023/03/07 05:26:57;;;;;;;95.30;51.50;;;;;;;0.37;81.45;98754.27;130211;1254;114715;-65
2023/03/07 05:29:59;;;;;;;98.00;51.60;;;;;;;0.37;81.52;98748.26;130285;1256;114699;-66
2023/03/07 05:33:01;;;;;;;95.80;52.20;;;;;;;0.41;81.52;98751.16;129861;1252;127773;-66
2023/03/07 05:36:04;;;;;;;93.00;49.70;;;;;;;0.42;81.46;98748.80;130172;1257;115061;-67
2023/03/07 05:39:06;;;;;;;94.80;51.20;;;;;;;0.45;81.60;98746.79;130295;1257;115122;-65
2023/03/07 05:42:08;;;;;;;93.30;51.70;;;;;;;0.49;81.73;98743.49;130327;1256;114696;-64
2023/03/07 05:45:11;;;;;;;74.10;42.20;;;;;;;0.52;81.24;98749.90;130299;1276;114766;-67
2023/03/07 05:48:13;;;;;;;81.20;45.30;;;;;;;0.53;81.37;98750.39;130390;1256;114730;-64
2023/03/07 05:51:15;;;;;;;82.30;44.80;;;;;;;0.56;81.63;98742.58;130307;1256;114766;-64
2023/03/07 05:54:17;;;;;;;82.40;45.90;;;;;;;0.60;81.69;98740.31;130271;1257;114812;-64
2023/03/07 05:57:20;;;;;;;82.70;44.40;;;;;;;0.64;81.51;98735.80;130340;1269;114808;-65
2023/03/07 06:00:22;;;;;;;69.20;42.00;;;;;;;0.68;81.48;98727.91;130256;1257;115475;-65
2023/03/07 06:03:24;;;;;;;77.20;44.30;;;;;;;0.73;81.31;98721.26;130314;1254;115254;-66
2023/03/07 06:06:27;;;;;;;74.20;41.70;;;;;;;0.78;81.28;98719.15;130348;1254;115339;-67
2023/03/07 06:09:29;;;;;;;67.60;38.90;;;;;;;0.83;81.27;98715.79;130032;1252;116385;-66
2023/03/07 06:12:31;;;;;;;66.10;38.50;;;;;;;0.90;81.08;98716.08;130257;1256;114753;-66
2023/03/07 06:15:33;;;;;;;68.40;38.50;;;;;;;0.99;81.39;98716.13;130344;1256;114717;-66
2023/03/07 06:18:35;;;;;;;70.50;38.00;;;;;;;1.07;81.17;98714.77;130030;1252;115288;-64
2023/03/07 06:21:37;;;;;;;67.50;38.90;;;;;;;1.15;81.30;98714.47;130394;1256;115436;-66
2023/03/07 06:24:39;;;;;;;70.30;38.40;;;;;;;1.23;81.16;98709.95;130375;1256;115396;-65
2023/03/07 06:27:41;;;;;;;58.80;35.70;;;;;;;1.29;80.77;98706.94;130379;1276;115331;-66
2023/03/07 06:30:45;;;;;;;65.00;37.50;;;;;;;1.33;80.80;98708.52;130206;1256;114741;-66
2023/03/07 06:33:47;;;;;;;69.70;41.00;;;;;;;1.38;80.75;98704.15;130443;1256;114757;-66
2023/03/07 06:36:49;;;;;;;63.90;37.60;;;;;;;1.42;80.69;98701.86;130254;1257;114754;-66
2023/03/07 06:39:53;;;;;;;64.00;38.50;;;;;;;1.50;80.71;98703.52;130282;1256;114806;-63
2023/03/07 06:42:57;;;;;;;61.90;38.10;;;;;;;1.59;80.76;98703.00;130285;1259;114971;-65
2023/03/07 06:46:00;;;;;;;57.30;35.20;;;;;;;1.68;80.85;98699.83;129918;1262;114951;-66
2023/03/07 06:49:02;;;;;;;62.60;36.70;;;;;;;1.76;80.42;98691.59;130254;1256;114865;-65
2023/03/07 06:52:04;;;;;;;58.70;36.60;;;;;;;1.86;80.62;98687.65;130314;1276;114754;-65
2023/03/07 06:55:08;;;;;;;62.40;37.40;;;;;;;1.99;80.66;98683.62;130280;1276;114735;-65
2023/03/07 06:58:10;;;;;;;56.50;33.80;;;;;;;2.15;80.41;98681.95;130031;1260;115269;-66
2023/03/07 07:01:19;;;;;;;54.40;33.60;;;;;;;2.30;80.39;98680.80;130232;1256;115490;-66
2023/03/07 07:04:21;;;;;;;60.70;35.20;;;;;;;2.44;80.33;98679.66;130329;1256;114699;-66
2023/03/07 07:07:24;;;;;;;55.50;34.80;;;;;;;2.56;79.97;98672.79;130230;1254;114767;-64
2023/03/07 07:10:26;;;;;;;59.60;33.90;;;;;;;2.70;79.82;98672.20;130273;1252;114825;-65
2023/03/07 07:13:29;;;;;;;45.70;30.60;;;;;;;2.84;79.96;98671.05;130321;1258;115173;-64
2023/03/07 07:16:32;;;;;;;55.70;34.60;;;;;;;2.95;79.55;98663.70;130281;1256;115263;-65
2023/03/07 07:19:35;;;;;;;58.30;35.60;;;;;;;3.10;79.51;98657.05;130278;1256;114729;-65
2023/03/07 07:22:37;;;;;;;46.30;30.40;;;;;;;3.27;79.51;98653.25;130359;1253;114815;-65
2023/03/07 07:25:39;;;;;;;50.80;33.00;;;;;;;3.46;79.37;98647.78;130336;1257;114757;-65
2023/03/07 07:28:41;;;;;;;53.60;31.60;;;;;;;3.64;78.99;98649.77;130372;1256;115176;-65
2023/03/07 07:31:43;;;;;;;49.20;32.20;;;;;;;3.75;78.57;98646.43;129897;1260;128341;-66
2023/03/07 07:34:45;;;;;;;51.30;31.70;;;;;;;3.84;78.27;98646.00;130258;1254;114789;-66
2023/03/07 07:37:48;;;;;;;48.00;31.80;;;;;;;3.96;78.45;98644.53;130356;1256;114746;-67
2023/03/07 07:40:50;;;;;;;49.80;32.40;;;;;;;4.13;78.27;98645.81;130252;1256;114807;-66
2023/03/07 07:43:53;;;;;;;48.40;31.80;;;;;;;4.28;77.82;98639.06;130392;1253;115202;-65
2023/03/07 07:46:55;;;;;;;49.00;31.50;;;;;;;4.39;77.77;98640.24;130582;1257;114731;-65
2023/03/07 07:49:58;;;;;;;48.30;30.70;;;;;;;4.55;77.63;98646.16;130342;1254;115385;-66
2023/03/07 07:53:00;;;;;;;51.10;32.70;;;;;;;4.72;77.31;98643.38;130467;1276;114743;-65
2023/03/07 07:56:02;;;;;;;47.60;30.40;;;;;;;4.87;76.94;98637.29;130172;1259;115196;-64
2023/03/07 07:59:04;;;;;;;43.80;31.10;;;;;;;5.04;76.76;98636.20;130242;1256;115475;-66
2023/03/07 08:02:12;;;;;;;43.90;29.30;;;;;;;5.24;77.06;98633.86;130167;1254;114861;-68
2023/03/07 08:05:15;;;;;;;45.90;30.30;;;;;;;5.46;76.46;98627.03;130329;1272;115221;-65
2023/03/07 08:08:18;;;;;;;44.30;29.50;;;;;;;5.64;75.72;98619.79;130213;1252;114824;-65
2023/03/07 08:11:21;;;;;;;42.20;28.10;;;;;;;5.82;75.37;98609.40;130275;1272;114790;-66
2023/03/07 08:14:23;;;;;;;42.50;29.00;;;;;;;5.97;74.97;98601.11;130389;1269;114789;-65
2023/03/07 08:17:28;;;;;;;44.10;29.40;;;;;;;6.15;74.93;98600.66;130413;1256;114667;-66
2023/03/07 08:20:30;;;;;;;40.70;29.30;;;;;;;6.31;74.56;98599.50;130344;1256;114747;-68
2023/03/07 08:23:32;;;;;;;40.40;27.50;;;;;;;6.47;74.52;98595.55;130269;1254;114725;-66
2023/03/07 08:26:34;;;;;;;42.80;28.20;;;;;;;6.64;74.25;98589.23;130322;1256;114795;-66
2023/03/07 08:29:37;;;;;;;39.00;27.20;;;;;;;6.80;73.68;98587.34;130205;1267;114675;-65
2023/03/07 08:32:40;;;;;;;36.10;26.40;;;;;;;6.87;73.15;98583.07;130363;1256;114782;-65
2023/03/07 08:35:42;;;;;;;39.20;26.80;;;;;;;6.90;72.93;98579.66;130259;1257;115074;-65
2023/03/07 08:38:50;;;;;;;38.20;26.20;;;;;;;6.89;72.88;98573.65;130304;1252;114785;-66
2023/03/07 08:41:54;;;;;;;36.70;24.50;;;;;;;6.91;72.63;98569.33;130297;1256;114739;-67
2023/03/07 08:44:56;;;;;;;35.60;23.20;;;;;;;6.90;71.67;98571.83;130217;1257;128731;-66
2023/03/07 08:47:58;;;;;;;35.30;23.50;;;;;;;6.88;71.69;98569.13;130485;1267;114747;-66
2023/03/07 08:51:06;;;;;;;40.20;24.70;;;;;;;6.92;71.77;98565.33;130338;1256;114874;-65
2023/03/07 08:54:08;;;;;;;40.40;25.00;;;;;;;6.96;71.22;98566.84;130078;1276;114869;-66
2023/03/07 08:57:10;;;;;;;32.90;21.40;;;;;;;7.02;70.88;98566.69;130274;1256;115249;-65
2023/03/07 09:00:13;;;;;;;30.40;20.50;;;;;;;7.14;71.06;98562.54;130363;1257;115062;-66
2023/03/07 09:03:15;;;;;;;29.80;19.30;;;;;;;7.33;70.60;98556.69;130089;1257;114936;-66
2023/03/07 09:06:19;;;;;;;29.00;18.60;;;;;;;7.51;70.16;98551.48;130129;1259;114771;-66
2023/03/07 09:09:22;;;;;;;27.40;18.20;;;;;;;7.62;69.84;98548.45;130032;1254;114921;-67
2023/03/07 09:12:24;;;;;;;27.70;17.90;;;;;;;7.70;69.58;98553.79;130259;1256;114715;-67
2023/03/07 09:15:26;;;;;;;24.90;17.60;;;;;;;7.73;68.76;98549.83;130313;1256;114811;-65
2023/03/07 09:18:29;;;;;;;26.50;17.80;;;;;;;7.77;68.00;98548.37;130370;1256;115318;-63
2023/03/07 09:21:31;;;;;;;26.50;17.00;;;;;;;7.83;68.00;98541.73;129547;1256;114888;-63
2023/03/07 09:24:34;;;;;;;24.90;16.90;;;;;;;7.96;67.89;98539.45;129993;1253;114795;-63
2023/03/07 09:27:36;;;;;;;28.00;17.90;;;;;;;8.11;67.16;98538.25;130362;1256;114714;-61
2023/03/07 09:30:38;;;;;;;25.60;17.20;;;;;;;8.25;67.79;98532.85;129941;1257;116331;-61
2023/03/07 09:33:41;;;;;;;27.90;17.80;;;;;;;8.45;66.27;98527.80;129791;1254;115445;-60
2023/03/07 09:36:43;;;;;;;24.60;16.70;;;;;;;8.56;66.27;98525.82;130018;1270;114732;-61
2023/03/07 09:39:48;;;;;;;27.40;17.40;;;;;;;8.66;66.22;98528.50;129869;1257;115339;-61
2023/03/07 09:43:03;;;;;;;28.80;17.50;;;;;;;8.65;65.65;98525.52;129729;1270;127809;-63
2023/03/07 09:46:14;;;;;;;26.60;16.10;;;;;;;8.50;63.79;98526.38;129729;1259;114801;-63
2023/03/07 09:49:19;;;;;;;26.50;15.70;;;;;;;8.32;64.35;98530.41;130007;1276;114731;-62
2023/03/07 09:52:24;;;;;;;25.60;16.90;;;;;;;8.22;64.14;98529.73;129641;1261;115519;-62
2023/03/07 09:55:27;;;;;;;23.00;15.60;;;;;;;8.18;64.28;98524.63;129760;1260;114920;-62
2023/03/07 09:58:30;;;;;;;19.40;14.00;;;;;;;8.20;63.92;98523.04;129920;1257;115406;-62
2023/03/07 10:01:33;;;;;;;24.60;16.30;;;;;;;8.23;63.46;98525.86;129964;1254;114775;-61
2023/03/07 10:04:45;;;;;;;20.70;14.30;;;;;;;8.26;63.40;98519.09;129889;1254;115195;-61
2023/03/07 10:07:48;;;;;;;30.70;16.10;;;;;;;8.31;63.35;98511.85;129764;1254;115412;-61
2023/03/07 10:11:02;;;;;;;29.00;15.40;;;;;;;8.38;63.42;98511.69;129977;1260;114728;-61
2023/03/07 10:14:16;;;;;;;21.70;14.10;;;;;;;8.45;63.50;98515.50;129471;1254;128411;-60
2023/03/07 10:17:22;;;;;;;22.10;15.00;;;;;;;8.51;63.32;98512.45;129460;1262;115275;-62
2023/03/07 10:20:41;;;;;;;24.80;16.30;;;;;;;8.57;62.95;98510.59;129618;1258;115460;-62
2023/03/07 10:23:56;;;;;;;24.00;14.10;;;;;;;8.63;62.68;98507.13;130032;1270;114741;-62
2023/03/07 10:27:07;;;;;;;21.90;14.50;;;;;;;8.78;62.95;98509.44;129654;1257;114844;-62
2023/03/07 10:30:16;;;;;;;24.30;15.80;;;;;;;8.95;62.50;98506.30;129626;1272;128615;-62
2023/03/07 10:33:19;;;;;;;23.10;14.80;;;;;;;9.12;62.46;98501.54;129702;1261;115201;-63
2023/03/07 10:36:37;;;;;;;21.80;14.90;;;;;;;9.30;62.34;98498.62;129944;1257;114728;-63
2023/03/07 10:39:55;;;;;;;21.80;14.80;;;;;;;9.39;61.62;98498.55;130416;1253;114818;-64
2023/03/07 10:42:58;;;;;;;20.70;14.70;;;;;;;9.43;60.94;98497.52;130015;1257;114677;-64
2023/03/07 10:46:17;;;;;;;20.60;13.50;;;;;;;9.40;61.07;98495.60;130458;1254;115385;-62
2023/03/07 10:49:32;;;;;;;22.30;14.50;;;;;;;9.38;60.80;98493.27;129798;1262;116549;-63
2023/03/07 10:52:39;;;;;;;21.10;14.00;;;;;;;9.33;60.76;98488.45;133860;1253;114633;-62
2023/03/07 10:55:43;;;;;;;18.50;12.80;;;;;;;9.30;60.66;98485.48;129784;1254;114867;-62
2023/03/07 10:59:00;;;;;;;20.60;14.40;;;;;;;9.30;60.33;98480.45;130006;1255;114811;-62
2023/03/07 11:02:36;;;;;;;21.00;14.20;;;;;;;9.27;59.82;98481.19;129832;1273;128053;-63
2023/03/07 11:05:39;;;;;;;19.40;12.40;;;;;;;9.22;59.60;98480.72;129745;1254;114737;-63
2023/03/07 11:08:44;;;;;;;19.00;12.60;;;;;;;9.18;59.83;98475.09;130207;1256;114728;-62
2023/03/07 11:11:58;;;;;;;19.30;12.30;;;;;;;9.15;59.23;98475.71;129807;1256;114687;-63
2023/03/07 11:15:20;;;;;;;20.20;12.30;;;;;;;9.07;58.62;98470.75;129680;1260;114793;-62
2023/03/07 11:18:33;;;;;;;17.90;11.60;;;;;;;8.95;58.32;98469.31;129659;1257;127993;-63
2023/03/07 11:21:35;;;;;;;18.30;11.70;;;;;;;8.86;58.74;98471.22;129666;1267;116509;-61
2023/03/07 11:24:38;;;;;;;19.30;12.00;;;;;;;8.80;58.62;98471.96;130048;1256;114871;-62
2023/03/07 11:27:44;;;;;;;17.00;11.70;;;;;;;8.74;58.42;98467.60;129907;1253;114803;-64
2023/03/07 11:30:46;;;;;;;16.10;11.60;;;;;;;8.71;58.75;98461.02;129958;1259;114712;-63
2023/03/07 11:34:08;;;;;;;17.50;10.90;;;;;;;8.70;58.78;98463.59;129898;1276;115081;-63
2023/03/07 11:37:45;;;;;;;18.80;12.90;;;;;;;8.71;58.54;98456.79;129890;1273;114721;-63
2023/03/07 11:41:00;;;;;;;17.20;10.90;;;;;;;8.69;58.46;98454.60;129963;1257;114722;-63
2023/03/07 11:44:33;;;;;;;15.20;10.90;;;;;;;8.65;58.65;98446.88;129752;1254;114903;-63
2023/03/07 11:48:22;;;;;;;17.70;11.00;;;;;;;8.65;58.74;98445.08;129530;1262;115061;-63
2023/03/07 11:51:34;;;;;;;13.90;10.20;;;;;;;8.64;58.37;98446.77;129040;1261;128597;-62
2023/03/07 11:54:49;;;;;;;18.90;10.80;;;;;;;8.65;58.39;98438.15;129153;1272;115604;-62
2023/03/07 11:58:14;;;;;;;17.70;10.70;;;;;;;8.69;58.17;98438.39;129108;1270;114838;-63
2023/03/07 12:01:28;;;;;;;15.20;11.00;;;;;;;8.74;58.39;98436.28;129565;1265;114780;-62
2023/03/07 12:04:53;;;;;;;15.80;10.80;;;;;;;8.78;58.15;98436.83;129165;1284;115237;-62
2023/03/07 12:07:58;;;;;;;14.50;10.30;;;;;;;8.77;57.64;98425.52;129160;1276;128452;-63
2023/03/07 12:11:13;;;;;;;17.20;10.60;;;;;;;8.77;57.97;98424.52;129057;1284;114947;-62
2023/03/07 12:14:36;;;;;;;18.20;9.80;;;;;;;8.83;57.63;98420.49;129200;1262;115429;-63
2023/03/07 12:17:56;;;;;;;15.80;10.40;;;;;;;8.93;57.97;98418.17;129544;1263;114940;-64
2023/03/07 12:21:05;;;;;;;15.10;10.80;;;;;;;8.98;57.61;98417.46;129507;1265;114833;-63
2023/03/07 12:24:30;;;;;;;16.80;10.00;;;;;;;9.01;57.58;98409.55;129124;1278;127618;-63
2023/03/07 12:27:45;;;;;;;11.10;7.20;;;;;;;9.00;57.41;98404.99;129601;1268;114867;-68
2023/03/07 12:31:01;;;;;;;22.70;15.20;;;;;;;9.00;57.32;98398.29;130321;1254;114647;-77
2023/03/07 12:34:10;;;;;;;15.30;10.20;;;;;;;8.98;57.68;98392.69;130526;1256;114798;-68
2023/03/07 12:37:19;;;;;;;17.70;10.80;;;;;;;8.98;57.49;98396.77;130006;1254;114738;-73
2023/03/07 12:40:27;;;;;;;18.60;11.40;;;;;;;8.99;57.67;98389.27;129976;1276;127608;-73
2023/03/07 12:43:33;;;;;;;15.90;10.10;;;;;;;8.93;57.47;98387.54;130328;1256;115154;-73
2023/03/07 12:46:41;;;;;;;14.50;10.20;;;;;;;8.88;57.26;98392.73;130347;1256;114821;-70
2023/03/07 12:49:59;;;;;;;15.80;10.40;;;;;;;8.86;57.49;98393.35;130097;1252;114840;-73
2023/03/07 12:53:09;;;;;;;15.20;10.40;;;;;;;8.89;57.80;98387.64;130023;1253;114960;-73
2023/03/07 12:56:20;;;;;;;14.50;9.40;;;;;;;8.90;57.49;98383.17;130235;1254;128183;-73
2023/03/07 12:59:22;;;;;;;15.40;10.00;;;;;;;8.92;57.68;98382.11;130349;1257;115263;-70
2023/03/07 13:02:29;;;;;;;20.10;14.50;;;;;;;8.99;57.81;98380.70;130490;1276;114660;-74
2023/03/07 13:05:34;;;;;;;16.20;10.90;;;;;;;9.09;58.08;98383.84;130444;1259;115278;-75
2023/03/07 13:08:37;;;;;;;20.70;12.00;;;;;;;9.19;57.79;98380.67;130299;1256;115266;-74
2023/03/07 13:12:25;;;;;;;18.10;11.60;;;;;;;9.27;57.89;98377.77;130109;1259;114785;-73
2023/03/07 13:15:37;;;;;;;18.80;10.50;;;;;;;9.42;57.52;98371.98;130124;1276;115262;-69
2023/03/07 13:18:39;;;;;;;16.80;10.30;;;;;;;9.47;57.42;98371.80;130316;1256;114783;-74
2023/03/07 13:21:41;;;;;;;14.80;10.20;;;;;;;9.49;57.00;98371.84;130194;1259;114759;-74
2023/03/07 13:24:45;;;;;;;13.00;9.70;;;;;;;9.46;56.97;98365.64;130102;1276;334625;-73
2023/03/07 13:27:51;;;;;;;13.00;9.30;;;;;;;9.43;56.93;98366.20;130432;1257;115163;-73
2023/03/07 13:31:13;;;;;;;16.70;9.90;;;;;;;9.38;56.84;98367.65;130007;1263;127875;-72
2023/03/07 13:34:45;;;;;;;12.80;8.60;;;;;;;9.26;56.74;98367.29;130096;1276;115198;-74
2023/03/07 13:37:51;;;;;;;12.00;8.30;;;;;;;9.09;56.20;98361.46;130382;1256;114737;-70
2023/03/07 13:40:57;;;;;;;18.00;10.60;;;;;;;8.93;56.39;98356.17;130311;1257;114721;-69
2023/03/07 13:44:00;;;;;;;12.70;9.40;;;;;;;8.84;56.69;98355.09;130167;1275;114804;-73
2023/03/07 13:47:03;;;;;;;14.90;8.90;;;;;;;8.80;56.84;98351.30;130217;1261;128998;-71
2023/03/07 13:50:45;;;;;;;19.20;9.50;;;;;;;8.79;57.10;98344.59;130371;1272;115163;-73
2023/03/07 13:53:51;;;;;;;13.40;8.70;;;;;;;8.83;57.10;98339.70;130277;1256;114957;-73
2023/03/07 13:56:54;;;;;;;12.50;8.20;;;;;;;8.84;57.03;98336.95;130430;1267;114715;-74
2023/03/07 13:59:56;;;;;;;12.10;8.60;;;;;;;8.86;57.27;98334.98;130342;1256;115885;-74
2023/03/07 14:02:59;;;;;;;11.90;8.40;;;;;;;8.91;57.33;98329.30;130375;1276;115097;-72
2023/03/07 14:06:12;;;;;;;13.80;8.00;;;;;;;8.94;57.10;98324.81;130594;1257;114722;-70